Time;durP1;ratioP1;P1;durP2;ratioP2;P2;SDS_P1;SDS_P2;PMS_P1;PMS_P2;Temp;Humidity;BMP_temperature;BMP_pressure;BME280_temperature;BME280_humidity;BME280_pressure;Samples;Min_cycle;Max_cycle;Signal;HPM_P1;HPM_P2
2023/09/21 00:02:22;;;;;;;4.88;3.42;;;;;;;;;;5106895;28;20538;-72
2023/09/21 00:04:49;;;;;;;5.80;3.40;;;;;;;;;;5113503;28;20119;-72
2023/09/21 00:07:15;;;;;;;5.40;3.20;;;;;;;;;;5103411;28;20047;-72
2023/09/21 00:09:41;;;;;;;5.03;3.15;;;;;;;;;;5100756;28;20044;-72
2023/09/21 00:12:10;;;;;;;5.30;3.42;;;;;;;;;;5099780;28;20441;-72
2023/09/21 00:14:36;;;;;;;6.55;3.67;;;;;;;;;;5104916;28;20411;-72
2023/09/21 00:17:03;;;;;;;4.30;3.50;;;;;;;;;;5106945;28;20446;-72
2023/09/21 00:19:30;;;;;;;5.65;3.88;;;;;;;;;;5106512;28;20453;-72
2023/09/21 00:21:58;;;;;;;4.53;3.50;;;;;;;;;;5109057;27;20051;-73
2023/09/21 00:24:24;;;;;;;4.22;3.70;;;;;;;;;;5093383;28;20123;-72
2023/09/21 00:26:51;;;;;;;5.57;3.75;;;;;;;;;;5099131;28;20055;-72
2023/09/21 00:29:17;;;;;;;6.20;3.30;;;;;;;;;;5113034;28;20455;-72
2023/09/21 00:31:43;;;;;;;5.60;3.50;;;;;;;;;;5104505;28;20123;-72
2023/09/21 00:34:11;;;;;;;4.97;3.22;;;;;;;;;;5107747;28;20052;-72
2023/09/21 00:36:42;;;;;;;5.57;3.65;;;;;;;;;;5106971;28;20077;-72
2023/09/21 00:39:11;;;;;;;5.00;3.20;;;;;;;;;;5104750;28;20067;-72
2023/09/21 00:41:37;;;;;;;5.78;3.20;;;;;;;;;;5094163;28;20089;-72
2023/09/21 00:44:07;;;;;;;5.45;4.00;;;;;;;;;;5105040;28;20043;-72
2023/09/21 00:46:34;;;;;;;4.43;3.33;;;;;;;;;;5106893;28;20040;-72
2023/09/21 00:49:00;;;;;;;7.35;3.45;;;;;;;;;;5111782;28;20112;-73
2023/09/21 00:51:27;;;;;;;5.75;3.60;;;;;;;;;;5101175;28;20036;-72
2023/09/21 00:53:56;;;;;;;7.15;3.47;;;;;;;;;;5104710;28;20047;-72
2023/09/21 00:56:23;;;;;;;5.30;3.17;;;;;;;;;;5103415;28;20468;-73
2023/09/21 00:58:53;;;;;;;6.10;3.45;;;;;;;;;;5109703;28;20453;-72
2023/09/21 01:01:22;;;;;;;6.18;3.50;;;;;;;;;;5110582;28;20052;-72
2023/09/21 01:03:49;;;;;;;5.05;3.00;;;;;;;;;;5105754;28;20055;-73
2023/09/21 01:06:18;;;;;;;4.53;2.80;;;;;;;;;;5097382;28;20101;-73
2023/09/21 01:08:44;;;;;;;5.00;2.85;;;;;;;;;;5106104;28;20388;-73
2023/09/21 01:11:11;;;;;;;5.82;3.17;;;;;;;;;;5112617;28;20040;-73
2023/09/21 01:13:37;;;;;;;4.65;2.85;;;;;;;;;;5105932;28;20036;-73
2023/09/21 01:16:04;;;;;;;6.22;3.10;;;;;;;;;;5110970;28;20164;-73
2023/09/21 01:18:31;;;;;;;4.70;2.95;;;;;;;;;;5100854;28;20063;-73
2023/09/21 01:21:04;;;;;;;3.60;2.75;;;;;;;;;;5107563;28;20047;-73
2023/09/21 01:23:40;;;;;;;4.63;3.33;;;;;;;;;;5101523;28;20372;-73
2023/09/21 01:26:06;;;;;;;4.72;3.10;;;;;;;;;;5116017;28;20071;-73
2023/09/21 01:28:32;;;;;;;4.65;2.83;;;;;;;;;;5109077;28;20542;-73
2023/09/21 01:30:58;;;;;;;6.00;3.35;;;;;;;;;;5109892;28;20073;-73
2023/09/21 01:33:24;;;;;;;4.90;3.22;;;;;;;;;;5106108;28;20036;-73
2023/09/21 01:35:51;;;;;;;7.93;3.58;;;;;;;;;;5105954;28;20059;-73
2023/09/21 01:38:17;;;;;;;3.80;2.88;;;;;;;;;;5114449;28;20047;-73
2023/09/21 01:40:44;;;;;;;5.93;3.30;;;;;;;;;;5116231;28;20122;-73
2023/09/21 01:43:16;;;;;;;4.88;3.00;;;;;;;;;;5106571;28;20103;-73
2023/09/21 01:45:42;;;;;;;4.00;3.00;;;;;;;;;;5108176;28;20122;-73
2023/09/21 01:48:09;;;;;;;4.30;3.00;;;;;;;;;;5109603;28;20050;-73
2023/09/21 01:50:46;;;;;;;5.60;3.28;;;;;;;;;;5115679;28;20043;-73
2023/09/21 01:53:12;;;;;;;4.90;3.25;;;;;;;;;;5107598;28;20040;-73
2023/09/21 01:55:39;;;;;;;5.22;3.10;;;;;;;;;;5104627;28;20040;-73
2023/09/21 01:58:06;;;;;;;5.28;3.22;;;;;;;;;;5108080;28;20040;-73
2023/09/21 02:00:36;;;;;;;4.32;3.00;;;;;;;;;;5107516;28;20093;-73
2023/09/21 02:03:09;;;;;;;5.85;3.05;;;;;;;;;;5102536;27;20215;-73
2023/09/21 02:05:35;;;;;;;4.88;3.25;;;;;;;;;;5108139;28;20122;-73
2023/09/21 02:08:04;;;;;;;3.50;2.95;;;;;;;;;;5129576;27;20047;-73
2023/09/21 02:10:30;;;;;;;4.65;2.70;;;;;;;;;;5115484;27;20082;-73
2023/09/21 02:12:57;;;;;;;5.45;2.70;;;;;;;;;;5114899;28;20040;-73
2023/09/21 02:15:24;;;;;;;4.35;2.72;;;;;;;;;;5099157;27;20073;-73
2023/09/21 02:17:52;;;;;;;4.60;3.05;;;;;;;;;;5100875;28;20097;-73
2023/09/21 02:20:20;;;;;;;4.78;2.97;;;;;;;;;;5109337;28;20411;-73
2023/09/21 02:22:49;;;;;;;5.30;2.90;;;;;;;;;;5113998;28;20055;-73
2023/09/21 02:25:16;;;;;;;3.95;3.00;;;;;;;;;;5115379;28;20069;-73
2023/09/21 02:27:47;;;;;;;5.72;2.90;;;;;;;;;;5107766;28;20048;-73
2023/09/21 02:30:17;;;;;;;5.50;3.15;;;;;;;;;;5094938;28;20043;-73
2023/09/21 02:32:49;;;;;;;4.38;2.90;;;;;;;;;;5104845;28;20039;-73
2023/09/21 02:35:16;;;;;;;6.03;3.40;;;;;;;;;;5111724;28;20039;-73
2023/09/21 02:37:49;;;;;;;5.43;2.90;;;;;;;;;;5115292;28;20528;-73
2023/09/21 02:40:16;;;;;;;6.85;3.17;;;;;;;;;;5104231;28;20039;-73
2023/09/21 02:42:46;;;;;;;4.25;2.80;;;;;;;;;;5114402;28;20044;-73
2023/09/21 02:45:12;;;;;;;7.95;3.40;;;;;;;;;;5094817;28;20051;-73
2023/09/21 02:47:42;;;;;;;4.13;2.75;;;;;;;;;;5104175;28;20048;-73
2023/09/21 02:50:14;;;;;;;6.18;2.92;;;;;;;;;;5114119;28;20040;-73
2023/09/21 02:52:47;;;;;;;4.30;3.03;;;;;;;;;;5112607;28;20055;-73
2023/09/21 02:55:16;;;;;;;5.82;2.70;;;;;;;;;;5098672;28;20040;-73
2023/09/21 02:57:42;;;;;;;3.80;2.72;;;;;;;;;;5101640;28;20050;-73
2023/09/21 03:00:21;;;;;;;6.30;3.55;;;;;;;;;;5110433;28;20040;-73
2023/09/21 03:02:48;;;;;;;6.72;3.20;;;;;;;;;;5104814;28;20039;-73
2023/09/21 03:05:16;;;;;;;5.18;3.00;;;;;;;;;;5109414;28;20046;-73
2023/09/21 03:07:43;;;;;;;6.72;3.53;;;;;;;;;;5099766;28;20055;-73
2023/09/21 03:10:10;;;;;;;5.07;3.13;;;;;;;;;;5103676;28;20067;-73
2023/09/21 03:12:39;;;;;;;6.07;3.03;;;;;;;;;;5115851;27;20042;-73
2023/09/21 03:15:15;;;;;;;3.85;2.70;;;;;;;;;;5111589;28;20071;-73
2023/09/21 03:17:42;;;;;;;6.68;2.90;;;;;;;;;;5104944;28;20032;-73
2023/09/21 03:20:12;;;;;;;4.53;2.80;;;;;;;;;;5108773;28;20055;-73
2023/09/21 03:22:38;;;;;;;4.53;2.95;;;;;;;;;;5097626;28;20048;-73
2023/09/21 03:25:09;;;;;;;4.22;2.35;;;;;;;;;;5094750;28;20048;-73
2023/09/21 03:27:37;;;;;;;5.38;2.90;;;;;;;;;;5101772;28;20044;-73
2023/09/21 03:30:05;;;;;;;4.15;2.85;;;;;;;;;;5108574;28;20031;-73
2023/09/21 03:32:31;;;;;;;5.28;2.63;;;;;;;;;;5103621;28;20067;-73
2023/09/21 03:34:57;;;;;;;4.60;2.83;;;;;;;;;;5100999;28;20432;-73
2023/09/21 03:37:24;;;;;;;4.22;2.88;;;;;;;;;;5115148;27;20525;-73
2023/09/21 03:39:50;;;;;;;7.82;2.90;;;;;;;;;;5104672;28;20529;-73
2023/09/21 03:42:17;;;;;;;4.68;2.55;;;;;;;;;;5112329;28;20483;-73
2023/09/21 03:44:43;;;;;;;5.90;2.92;;;;;;;;;;5110979;28;20039;-73
2023/09/21 03:47:11;;;;;;;5.55;2.70;;;;;;;;;;5111467;28;20123;-73
2023/09/21 03:49:37;;;;;;;5.55;2.78;;;;;;;;;;5103368;28;20043;-73
2023/09/21 03:52:04;;;;;;;5.00;2.83;;;;;;;;;;5107656;27;20036;-73
2023/09/21 03:54:30;;;;;;;3.70;2.65;;;;;;;;;;5108916;28;20047;-73
2023/09/21 03:56:56;;;;;;;3.95;2.65;;;;;;;;;;5107369;28;20143;-73
2023/09/21 03:59:22;;;;;;;5.47;2.78;;;;;;;;;;5102481;28;20040;-73
2023/09/21 04:01:48;;;;;;;4.20;2.83;;;;;;;;;;5108867;28;20066;-73
2023/09/21 04:04:18;;;;;;;7.00;2.78;;;;;;;;;;5113594;28;20046;-73
2023/09/21 04:06:46;;;;;;;3.60;2.72;;;;;;;;;;5103729;28;20099;-73
2023/09/21 04:09:12;;;;;;;3.40;2.55;;;;;;;;;;5113562;28;20032;-73
2023/09/21 04:11:38;;;;;;;4.53;2.90;;;;;;;;;;5109883;28;20036;-73
2023/09/21 04:14:06;;;;;;;3.83;2.60;;;;;;;;;;5109800;28;20164;-73
2023/09/21 04:16:33;;;;;;;5.72;2.92;;;;;;;;;;5105892;28;20063;-73
2023/09/21 04:19:01;;;;;;;4.28;3.05;;;;;;;;;;5108245;27;20093;-73
2023/09/21 04:21:27;;;;;;;4.03;3.33;;;;;;;;;;5093539;28;20050;-73
2023/09/21 04:23:53;;;;;;;4.15;3.05;;;;;;;;;;5110549;28;20040;-73
2023/09/21 04:26:19;;;;;;;5.00;3.60;;;;;;;;;;5113257;28;20138;-73
2023/09/21 04:28:45;;;;;;;4.75;2.95;;;;;;;;;;5109542;28;20036;-73
2023/09/21 04:31:13;;;;;;;5.25;3.53;;;;;;;;;;5097117;28;20131;-73
2023/09/21 04:33:40;;;;;;;3.70;3.17;;;;;;;;;;5110563;28;20055;-73
2023/09/21 04:36:06;;;;;;;4.90;3.40;;;;;;;;;;5113297;28;20115;-73
2023/09/21 04:38:33;;;;;;;4.32;3.17;;;;;;;;;;5110455;28;20081;-73
2023/09/21 04:40:59;;;;;;;3.85;2.88;;;;;;;;;;5113360;28;20122;-73
2023/09/21 04:43:28;;;;;;;5.28;3.40;;;;;;;;;;5100083;28;20055;-73
2023/09/21 04:45:54;;;;;;;3.92;3.10;;;;;;;;;;5107282;28;20078;-73
2023/09/21 04:48:21;;;;;;;3.75;3.03;;;;;;;;;;5111107;28;20122;-73
2023/09/21 04:50:48;;;;;;;5.00;3.05;;;;;;;;;;5109913;28;20036;-73
2023/09/21 04:53:15;;;;;;;5.03;2.90;;;;;;;;;;5104053;28;20158;-73
2023/09/21 04:55:42;;;;;;;5.05;3.03;;;;;;;;;;5106129;28;20048;-73
2023/09/21 04:58:08;;;;;;;4.60;2.88;;;;;;;;;;5104110;28;20074;-73
2023/09/21 05:00:34;;;;;;;3.85;2.85;;;;;;;;;;5108636;28;20087;-73
2023/09/21 05:03:00;;;;;;;3.50;2.90;;;;;;;;;;5114285;28;20079;-73
2023/09/21 05:05:26;;;;;;;5.53;3.75;;;;;;;;;;5110896;28;20036;-73
2023/09/21 05:07:53;;;;;;;5.63;3.20;;;;;;;;;;5114251;28;20051;-73
2023/09/21 05:10:19;;;;;;;3.97;3.05;;;;;;;;;;5115626;28;20106;-73
2023/09/21 05:12:48;;;;;;;6.60;2.97;;;;;;;;;;5110542;28;20177;-73
2023/09/21 05:15:15;;;;;;;5.80;3.28;;;;;;;;;;5104490;28;20063;-73
2023/09/21 05:17:42;;;;;;;5.53;3.22;;;;;;;;;;5116003;28;20119;-73
2023/09/21 05:20:11;;;;;;;4.93;3.05;;;;;;;;;;5112486;28;20093;-73
2023/09/21 05:22:41;;;;;;;4.75;3.30;;;;;;;;;;5110922;28;20044;-73
2023/09/21 05:25:07;;;;;;;6.00;3.53;;;;;;;;;;5103311;28;20040;-73
2023/09/21 05:27:33;;;;;;;5.50;2.88;;;;;;;;;;5105732;28;20054;-73
2023/09/21 05:30:00;;;;;;;4.35;3.15;;;;;;;;;;5106518;28;20121;-73
2023/09/21 05:32:27;;;;;;;4.72;3.20;;;;;;;;;;5110597;28;20047;-73
2023/09/21 05:34:53;;;;;;;5.53;3.45;;;;;;;;;;5102157;28;20063;-74
2023/09/21 05:37:19;;;;;;;4.60;3.20;;;;;;;;;;5112535;28;20051;-73
2023/09/21 05:39:46;;;;;;;4.40;3.60;;;;;;;;;;5115709;28;20070;-74
2023/09/21 05:42:15;;;;;;;6.70;3.70;;;;;;;;;;5104867;28;20086;-73
2023/09/21 05:44:42;;;;;;;4.80;3.20;;;;;;;;;;5110258;28;20526;-73
2023/09/21 05:47:08;;;;;;;6.88;3.60;;;;;;;;;;5108426;28;20135;-73
2023/09/21 05:49:36;;;;;;;6.68;3.80;;;;;;;;;;5112744;28;20047;-73
2023/09/21 05:52:08;;;;;;;4.85;3.40;;;;;;;;;;5105347;28;20052;-73
2023/09/21 05:54:35;;;;;;;5.03;3.10;;;;;;;;;;5106493;28;20394;-73
2023/09/21 05:57:04;;;;;;;6.15;3.60;;;;;;;;;;5113645;28;20050;-73
2023/09/21 05:59:31;;;;;;;6.75;4.05;;;;;;;;;;5109776;27;20081;-73
2023/09/21 06:02:03;;;;;;;5.90;3.90;;;;;;;;;;5104711;28;20098;-73
2023/09/21 06:04:30;;;;;;;5.63;3.47;;;;;;;;;;5104093;27;20043;-73
2023/09/21 06:06:58;;;;;;;7.45;3.65;;;;;;;;;;5107546;28;20078;-73
2023/09/21 06:09:24;;;;;;;4.53;3.10;;;;;;;;;;5115649;28;20051;-73
2023/09/21 06:11:50;;;;;;;5.85;3.60;;;;;;;;;;5110551;28;20054;-73
2023/09/21 06:14:17;;;;;;;5.30;3.42;;;;;;;;;;5113013;28;20031;-73
2023/09/21 06:16:43;;;;;;;5.60;3.65;;;;;;;;;;5107146;28;20075;-74
2023/09/21 06:19:11;;;;;;;8.52;4.05;;;;;;;;;;5114192;28;20046;-73
2023/09/21 06:21:39;;;;;;;6.05;3.78;;;;;;;;;;5112501;28;20406;-73
2023/09/21 06:24:05;;;;;;;9.95;4.10;;;;;;;;;;5108968;28;20051;-74
2023/09/21 06:26:31;;;;;;;8.05;4.00;;;;;;;;;;5111978;28;20055;-74
2023/09/21 06:28:59;;;;;;;7.45;4.28;;;;;;;;;;5112752;28;20043;-74
2023/09/21 06:31:25;;;;;;;7.05;4.07;;;;;;;;;;5100863;28;20036;-74
2023/09/21 06:33:53;;;;;;;8.38;4.30;;;;;;;;;;5103430;28;20044;-74
2023/09/21 06:36:20;;;;;;;6.95;4.25;;;;;;;;;;5111723;28;20047;-74
2023/09/21 06:38:50;;;;;;;7.90;4.57;;;;;;;;;;5115222;27;20063;-74
2023/09/21 06:41:16;;;;;;;6.20;3.70;;;;;;;;;;5097925;28;20066;-74
2023/09/21 06:43:43;;;;;;;9.15;3.75;;;;;;;;;;5108661;28;20039;-74
2023/09/21 06:46:09;;;;;;;5.57;3.60;;;;;;;;;;5114708;28;20119;-74
2023/09/21 06:48:35;;;;;;;4.40;3.25;;;;;;;;;;5099927;28;20040;-74
2023/09/21 06:51:03;;;;;;;5.65;2.97;;;;;;;;;;5106124;27;20044;-74
2023/09/21 06:53:29;;;;;;;4.90;3.25;;;;;;;;;;5095066;28;20131;-73
2023/09/21 06:55:56;;;;;;;7.43;3.42;;;;;;;;;;5103143;28;20044;-73
2023/09/21 06:58:22;;;;;;;5.47;3.63;;;;;;;;;;5096774;28;20111;-73
2023/09/21 07:00:48;;;;;;;5.07;3.25;;;;;;;;;;5101827;28;20131;-73
2023/09/21 07:03:16;;;;;;;5.55;3.70;;;;;;;;;;5106138;27;20423;-73
2023/09/21 07:05:43;;;;;;;6.28;3.38;;;;;;;;;;5111105;28;20122;-74
2023/09/21 07:08:10;;;;;;;4.97;3.55;;;;;;;;;;5103228;28;20076;-73
2023/09/21 07:10:36;;;;;;;5.20;3.90;;;;;;;;;;5113425;28;20044;-73
2023/09/21 07:13:03;;;;;;;5.13;3.50;;;;;;;;;;5097959;28;20055;-74
2023/09/21 07:15:30;;;;;;;6.40;3.80;;;;;;;;;;5101283;28;20118;-76
2023/09/21 07:17:58;;;;;;;7.63;3.70;;;;;;;;;;5109617;28;20043;-72
2023/09/21 07:20:26;;;;;;;4.70;3.45;;;;;;;;;;5104302;28;20071;-73
2023/09/21 07:22:52;;;;;;;2.17;1.55;;;;;;;;;;5110732;27;20100;-73
2023/09/21 07:25:19;;;;;;;1.50;1.40;;;;;;;;;;5113659;28;20089;-72
2023/09/21 07:27:46;;;;;;;3.05;1.92;;;;;;;;;;5109943;28;20040;-75
2023/09/21 07:30:13;;;;;;;2.50;1.52;;;;;;;;;;5109942;28;20032;-76
2023/09/21 07:32:39;;;;;;;2.38;1.35;;;;;;;;;;5109808;28;20043;-72
2023/09/21 07:35:09;;;;;;;2.45;1.83;;;;;;;;;;5106420;28;20038;-73
2023/09/21 07:37:35;;;;;;;2.03;1.60;;;;;;;;;;5114573;28;20127;-72
2023/09/21 07:40:06;;;;;;;1.63;1.42;;;;;;;;;;5114589;28;20082;-73
2023/09/21 07:42:35;;;;;;;3.25;1.85;;;;;;;;;;5101710;28;20173;-73
2023/09/21 07:45:02;;;;;;;2.17;1.60;;;;;;;;;;5111419;28;20337;-74
2023/09/21 07:47:28;;;;;;;1.70;1.60;;;;;;;;;;5114314;28;20055;-72
2023/09/21 07:49:57;;;;;;;2.25;1.73;;;;;;;;;;5100930;28;20036;-73
2023/09/21 07:52:23;;;;;;;3.03;1.70;;;;;;;;;;5106930;28;20039;-72
2023/09/21 07:54:53;;;;;;;2.00;1.38;;;;;;;;;;5110871;28;20483;-72
2023/09/21 07:57:19;;;;;;;1.50;1.40;;;;;;;;;;5114414;28;20514;-72
2023/09/21 07:59:45;;;;;;;2.35;1.80;;;;;;;;;;5109232;28;21577;-73
2023/09/21 08:02:12;;;;;;;1.70;1.40;;;;;;;;;;5098224;28;20510;-73
2023/09/21 08:04:38;;;;;;;3.42;1.70;;;;;;;;;;5109973;28;20046;-72
2023/09/21 08:07:05;;;;;;;2.58;1.63;;;;;;;;;;5107410;28;20044;-73
2023/09/21 08:09:34;;;;;;;1.90;1.42;;;;;;;;;;5109058;28;20040;-75
2023/09/21 08:12:01;;;;;;;2.67;1.65;;;;;;;;;;5111304;28;20108;-74
2023/09/21 08:14:27;;;;;;;2.30;1.45;;;;;;;;;;5105986;28;20035;-72
2023/09/21 08:16:56;;;;;;;2.90;1.85;;;;;;;;;;5096205;28;20048;-77
2023/09/21 08:19:22;;;;;;;2.45;1.65;;;;;;;;;;5100566;28;20040;-72
2023/09/21 08:21:49;;;;;;;1.92;1.60;;;;;;;;;;5102406;28;20036;-72
2023/09/21 08:24:15;;;;;;;2.40;1.63;;;;;;;;;;5098678;28;20113;-73
2023/09/21 08:26:41;;;;;;;3.53;1.52;;;;;;;;;;5098484;28;20104;-72
2023/09/21 08:29:07;;;;;;;3.53;1.70;;;;;;;;;;5096996;27;20101;-72
2023/09/21 08:31:33;;;;;;;2.58;1.55;;;;;;;;;;5103691;28;20042;-72
2023/09/21 08:34:00;;;;;;;1.65;1.33;;;;;;;;;;5113290;28;20475;-73
2023/09/21 08:36:28;;;;;;;2.78;1.80;;;;;;;;;;5111085;28;20450;-73
2023/09/21 08:38:54;;;;;;;2.47;1.70;;;;;;;;;;5109946;28;20135;-73
2023/09/21 08:41:20;;;;;;;2.60;2.00;;;;;;;;;;5104885;28;20048;-73
2023/09/21 08:43:49;;;;;;;1.67;1.48;;;;;;;;;;5107957;28;20119;-73
2023/09/21 08:46:15;;;;;;;3.63;1.83;;;;;;;;;;5109274;28;20052;-73
2023/09/21 08:48:43;;;;;;;3.33;2.03;;;;;;;;;;5105689;28;20055;-73
2023/09/21 08:51:15;;;;;;;1.90;1.70;;;;;;;;;;5099817;28;20040;-73
2023/09/21 08:53:42;;;;;;;2.60;1.90;;;;;;;;;;5098150;28;20395;-73
2023/09/21 08:56:08;;;;;;;4.50;2.17;;;;;;;;;;5103330;28;21075;-72
2023/09/21 08:58:40;;;;;;;2.67;1.75;;;;;;;;;;5101467;28;20056;-72
2023/09/21 09:01:06;;;;;;;3.42;1.70;;;;;;;;;;5113297;28;20047;-72
2023/09/21 09:03:34;;;;;;;3.13;1.70;;;;;;;;;;5112564;28;20035;-72
2023/09/21 09:06:00;;;;;;;2.63;1.67;;;;;;;;;;5109461;28;20044;-73
2023/09/21 09:08:29;;;;;;;2.97;1.90;;;;;;;;;;5097643;28;20040;-72
2023/09/21 09:10:56;;;;;;;2.78;1.50;;;;;;;;;;5105161;28;20055;-72
2023/09/21 09:13:30;;;;;;;2.63;1.58;;;;;;;;;;5106481;28;20093;-73
2023/09/21 09:15:59;;;;;;;3.40;1.60;;;;;;;;;;5111933;28;20114;-73
2023/09/21 09:18:26;;;;;;;2.90;1.70;;;;;;;;;;5111859;28;20449;-73
2023/09/21 09:20:54;;;;;;;3.38;1.90;;;;;;;;;;5112567;28;20480;-75
2023/09/21 09:23:21;;;;;;;2.50;1.80;;;;;;;;;;5101419;28;20373;-73
2023/09/21 09:25:51;;;;;;;3.30;1.95;;;;;;;;;;5104712;28;20043;-73
2023/09/21 09:28:17;;;;;;;4.07;2.10;;;;;;;;;;5099212;28;20047;-73
2023/09/21 09:30:45;;;;;;;3.58;2.45;;;;;;;;;;5099043;28;20130;-73
2023/09/21 09:33:15;;;;;;;4.60;1.90;;;;;;;;;;5109997;28;20055;-73
2023/09/21 09:35:41;;;;;;;3.88;1.80;;;;;;;;;;5112414;28;20158;-73
2023/09/21 09:38:11;;;;;;;3.35;1.70;;;;;;;;;;5105665;28;20063;-73
2023/09/21 09:40:37;;;;;;;3.72;1.80;;;;;;;;;;5101158;28;20591;-73
2023/09/21 09:43:07;;;;;;;3.13;1.92;;;;;;;;;;5107068;28;20039;-73
2023/09/21 09:45:37;;;;;;;3.33;1.90;;;;;;;;;;5114607;28;20459;-72
2023/09/21 09:48:07;;;;;;;3.42;2.00;;;;;;;;;;5113176;27;20102;-72
2023/09/21 09:50:36;;;;;;;4.50;1.90;;;;;;;;;;5105263;28;20547;-72
2023/09/21 09:53:03;;;;;;;6.05;2.10;;;;;;;;;;5115918;27;20402;-72
2023/09/21 09:55:32;;;;;;;2.95;1.88;;;;;;;;;;5106181;28;20070;-72
2023/09/21 09:57:59;;;;;;;2.63;2.00;;;;;;;;;;5096364;28;20055;-73
2023/09/21 10:00:27;;;;;;;2.90;1.73;;;;;;;;;;5099884;28;20036;-73
2023/09/21 10:02:55;;;;;;;3.13;1.90;;;;;;;;;;5102683;28;20053;-73
2023/09/21 10:05:21;;;;;;;2.92;1.90;;;;;;;;;;5116773;28;20047;-73
2023/09/21 10:07:51;;;;;;;2.53;1.58;;;;;;;;;;5114203;27;20118;-73
2023/09/21 10:10:20;;;;;;;2.83;1.90;;;;;;;;;;5109993;28;20400;-75
2023/09/21 10:12:49;;;;;;;3.15;1.90;;;;;;;;;;5113313;28;20455;-73
2023/09/21 10:15:16;;;;;;;2.80;2.00;;;;;;;;;;5116696;28;20052;-73
2023/09/21 10:17:42;;;;;;;3.03;2.20;;;;;;;;;;5101083;28;20055;-73
2023/09/21 10:20:15;;;;;;;2.33;1.90;;;;;;;;;;5116124;28;20123;-73
2023/09/21 10:22:43;;;;;;;2.13;1.60;;;;;;;;;;5097428;28;20044;-73
2023/09/21 10:25:11;;;;;;;3.15;1.67;;;;;;;;;;5106272;28;20051;-72
2023/09/21 10:27:46;;;;;;;2.67;1.73;;;;;;;;;;5115445;28;20035;-73
2023/09/21 10:30:15;;;;;;;2.67;1.92;;;;;;;;;;5105106;28;20111;-73
2023/09/21 10:32:42;;;;;;;3.53;1.90;;;;;;;;;;5107133;28;20055;-73
2023/09/21 10:35:11;;;;;;;3.08;1.90;;;;;;;;;;5111269;28;20078;-73
2023/09/21 10:37:39;;;;;;;3.28;1.90;;;;;;;;;;5106809;28;20428;-73
2023/09/21 10:40:08;;;;;;;2.35;1.80;;;;;;;;;;5098663;28;20051;-73
2023/09/21 10:42:36;;;;;;;3.28;1.75;;;;;;;;;;5115753;28;20035;-73
2023/09/21 10:45:07;;;;;;;3.28;1.90;;;;;;;;;;5114707;28;20042;-73
2023/09/21 10:47:42;;;;;;;2.33;1.85;;;;;;;;;;5115649;28;20047;-73
2023/09/21 10:50:12;;;;;;;2.75;1.85;;;;;;;;;;5108658;28;20054;-73
2023/09/21 10:52:40;;;;;;;4.55;2.17;;;;;;;;;;5102126;28;20047;-73
2023/09/21 10:55:07;;;;;;;2.90;1.80;;;;;;;;;;5115305;28;20079;-73
2023/09/21 10:57:33;;;;;;;3.35;1.70;;;;;;;;;;5114947;28;20387;-73
2023/09/21 11:00:00;;;;;;;3.70;1.65;;;;;;;;;;5115263;28;20092;-75
2023/09/21 11:02:26;;;;;;;2.80;1.80;;;;;;;;;;5111995;28;20097;-75
2023/09/21 11:04:53;;;;;;;2.53;1.38;;;;;;;;;;5112473;28;20054;-73
2023/09/21 11:07:21;;;;;;;2.25;1.80;;;;;;;;;;5109891;27;20051;-73
2023/09/21 11:09:48;;;;;;;2.95;2.05;;;;;;;;;;5104447;28;20051;-73
2023/09/21 11:12:14;;;;;;;3.58;1.80;;;;;;;;;;5115191;28;20043;-73
2023/09/21 11:14:41;;;;;;;2.30;1.40;;;;;;;;;;5103042;27;20042;-73
2023/09/21 11:17:11;;;;;;;2.45;1.50;;;;;;;;;;5108957;28;20479;-73
2023/09/21 11:19:37;;;;;;;2.05;1.70;;;;;;;;;;5114777;28;20044;-73
2023/09/21 11:22:05;;;;;;;3.75;1.77;;;;;;;;;;5111933;28;20056;-73
2023/09/21 11:24:32;;;;;;;3.13;1.85;;;;;;;;;;5102746;28;20471;-73
2023/09/21 11:26:59;;;;;;;3.10;2.08;;;;;;;;;;5114971;28;20067;-73
2023/09/21 11:29:29;;;;;;;1.90;1.50;;;;;;;;;;5105749;27;20040;-73
2023/09/21 11:31:55;;;;;;;2.45;1.50;;;;;;;;;;5121627;27;20035;-73
2023/09/21 11:34:21;;;;;;;3.45;1.80;;;;;;;;;;5105537;28;20240;-73
2023/09/21 11:36:50;;;;;;;2.17;1.52;;;;;;;;;;5111055;28;20221;-73
2023/09/21 11:39:17;;;;;;;2.15;1.70;;;;;;;;;;5107568;28;20052;-73
2023/09/21 11:41:44;;;;;;;2.30;1.60;;;;;;;;;;5110356;28;20492;-73
2023/09/21 11:44:12;;;;;;;2.60;1.70;;;;;;;;;;5114166;28;20039;-73
2023/09/21 11:46:40;;;;;;;1.63;1.27;;;;;;;;;;5104811;28;20100;-73
2023/09/21 11:49:06;;;;;;;2.58;1.67;;;;;;;;;;5102659;28;20050;-73
2023/09/21 11:51:33;;;;;;;2.70;1.75;;;;;;;;;;5097980;28;20075;-73
2023/09/21 11:54:00;;;;;;;3.83;1.90;;;;;;;;;;5103350;28;20055;-73
2023/09/21 11:56:26;;;;;;;2.03;1.70;;;;;;;;;;5103738;28;20063;-73
2023/09/21 11:58:58;;;;;;;2.58;1.80;;;;;;;;;;5097244;28;20187;-73
2023/09/21 12:01:28;;;;;;;3.30;1.95;;;;;;;;;;5097765;28;20092;-73
2023/09/21 12:03:56;;;;;;;3.00;2.20;;;;;;;;;;5104544;28;20840;-73
2023/09/21 12:06:27;;;;;;;3.00;2.10;;;;;;;;;;5103535;28;20043;-73
2023/09/21 12:08:54;;;;;;;2.88;2.00;;;;;;;;;;5109411;28;20075;-73
2023/09/21 12:11:23;;;;;;;3.03;2.00;;;;;;;;;;5105040;28;20043;-73
2023/09/21 12:13:49;;;;;;;2.80;2.15;;;;;;;;;;5103193;28;20106;-73
2023/09/21 12:16:15;;;;;;;3.03;2.10;;;;;;;;;;5108062;28;20040;-73
2023/09/21 12:18:43;;;;;;;3.42;2.20;;;;;;;;;;5109500;28;20055;-73
2023/09/21 12:21:09;;;;;;;3.35;2.00;;;;;;;;;;5099791;28;20059;-73
2023/09/21 12:23:36;;;;;;;2.85;2.15;;;;;;;;;;5094837;28;20048;-73
2023/09/21 12:26:02;;;;;;;2.72;1.80;;;;;;;;;;5111366;28;20348;-73
2023/09/21 12:28:28;;;;;;;3.45;2.10;;;;;;;;;;5104706;28;20779;-73
2023/09/21 12:30:54;;;;;;;3.33;2.10;;;;;;;;;;5108420;28;20379;-73
2023/09/21 12:33:20;;;;;;;3.42;2.22;;;;;;;;;;5111437;28;20054;-73
2023/09/21 12:35:47;;;;;;;3.00;1.80;;;;;;;;;;5104404;28;20126;-73
2023/09/21 12:38:15;;;;;;;3.20;2.30;;;;;;;;;;5106083;28;20055;-73
2023/09/21 12:40:41;;;;;;;2.53;1.92;;;;;;;;;;5105511;28;20047;-77
2023/09/21 12:43:09;;;;;;;2.83;2.17;;;;;;;;;;5097015;28;20048;-77
2023/09/21 12:45:37;;;;;;;4.03;2.28;;;;;;;;;;5110003;28;20050;-73
2023/09/21 12:48:07;;;;;;;3.28;2.20;;;;;;;;;;5102945;28;20040;-73
2023/09/21 12:50:33;;;;;;;2.35;1.98;;;;;;;;;;5105575;28;20376;-73
2023/09/21 12:52:59;;;;;;;3.83;2.20;;;;;;;;;;5099152;28;20054;-73
2023/09/21 12:55:25;;;;;;;3.45;2.15;;;;;;;;;;5098033;28;20055;-73
2023/09/21 12:57:51;;;;;;;3.10;2.53;;;;;;;;;;5096317;28;20039;-73
2023/09/21 13:00:18;;;;;;;3.00;2.10;;;;;;;;;;5093915;28;20051;-73
2023/09/21 13:02:44;;;;;;;2.70;2.15;;;;;;;;;;5096794;28;20044;-73
2023/09/21 13:05:13;;;;;;;2.53;2.10;;;;;;;;;;5099501;28;20075;-73
2023/09/21 13:07:43;;;;;;;2.47;2.00;;;;;;;;;;5095128;28;20748;-73
2023/09/21 13:10:10;;;;;;;4.07;1.88;;;;;;;;;;5095416;28;20047;-73
2023/09/21 13:12:37;;;;;;;3.13;1.90;;;;;;;;;;5097467;28;20044;-73
2023/09/21 13:15:03;;;;;;;3.20;2.05;;;;;;;;;;5095091;28;20504;-73
2023/09/21 13:17:31;;;;;;;4.28;2.20;;;;;;;;;;5097893;28;20480;-73
2023/09/21 13:19:57;;;;;;;2.58;1.67;;;;;;;;;;5109295;28;20123;-73
2023/09/21 13:22:23;;;;;;;1.90;1.67;;;;;;;;;;5115410;28;20141;-73
2023/09/21 13:24:49;;;;;;;3.22;1.80;;;;;;;;;;5113611;28;20142;-73
2023/09/21 13:27:16;;;;;;;2.60;1.80;;;;;;;;;;5098875;28;20036;-73
2023/09/21 13:29:42;;;;;;;2.80;1.80;;;;;;;;;;5117075;28;20055;-72
2023/09/21 13:32:09;;;;;;;2.63;1.90;;;;;;;;;;5099576;27;20044;-72
2023/09/21 13:34:36;;;;;;;2.80;1.80;;;;;;;;;;5101924;27;20101;-73
2023/09/21 13:37:03;;;;;;;2.83;1.60;;;;;;;;;;5102144;28;20044;-73
2023/09/21 13:39:29;;;;;;;2.55;1.80;;;;;;;;;;5112459;28;20060;-73
2023/09/21 13:41:56;;;;;;;2.05;1.67;;;;;;;;;;5108801;28;20443;-72
2023/09/21 13:44:22;;;;;;;2.90;1.92;;;;;;;;;;5103657;27;20439;-72
2023/09/21 13:46:48;;;;;;;1.98;1.60;;;;;;;;;;5101062;28;20050;-72
2023/09/21 13:49:14;;;;;;;2.50;1.80;;;;;;;;;;5107575;28;20085;-74
2023/09/21 13:51:42;;;;;;;2.58;1.80;;;;;;;;;;5105850;28;20470;-75
2023/09/21 13:54:08;;;;;;;2.92;1.90;;;;;;;;;;5100082;28;20126;-73
2023/09/21 13:56:34;;;;;;;1.80;1.70;;;;;;;;;;5109042;27;20051;-72
2023/09/21 13:59:00;;;;;;;2.35;1.80;;;;;;;;;;5115296;28;20039;-72
2023/09/21 14:01:26;;;;;;;2.35;1.90;;;;;;;;;;5112874;28;20036;-72
2023/09/21 14:03:53;;;;;;;2.15;1.90;;;;;;;;;;5105229;28;20113;-72
2023/09/21 14:06:22;;;;;;;2.47;1.90;;;;;;;;;;5108410;27;20031;-77
2023/09/21 14:08:49;;;;;;;3.10;2.28;;;;;;;;;;5110245;28;20512;-72
2023/09/21 14:11:15;;;;;;;3.88;2.03;;;;;;;;;;5093409;28;20051;-72
2023/09/21 14:13:41;;;;;;;3.80;2.05;;;;;;;;;;5106080;28;20139;-73
2023/09/21 14:16:10;;;;;;;2.50;2.08;;;;;;;;;;5103512;28;20040;-72
2023/09/21 14:18:37;;;;;;;2.40;2.03;;;;;;;;;;5101436;28;20456;-73
2023/09/21 14:21:04;;;;;;;2.92;2.08;;;;;;;;;;5106175;28;20055;-73
2023/09/21 14:23:33;;;;;;;4.03;2.30;;;;;;;;;;5111378;28;20059;-78
2023/09/21 14:25:59;;;;;;;2.63;2.13;;;;;;;;;;5096159;28;20040;-74
2023/09/21 14:28:25;;;;;;;3.15;2.30;;;;;;;;;;5107116;28;20054;-75
2023/09/21 14:30:52;;;;;;;2.78;1.95;;;;;;;;;;5108369;28;20124;-74
2023/09/21 14:33:21;;;;;;;2.90;1.90;;;;;;;;;;5097358;28;20044;-77
2023/09/21 14:35:47;;;;;;;3.35;2.10;;;;;;;;;;5115806;28;20044;-73
2023/09/21 14:38:14;;;;;;;3.33;1.80;;;;;;;;;;5105424;27;20056;-72
2023/09/21 14:40:40;;;;;;;1.98;1.75;;;;;;;;;;5115519;27;20044;-75
2023/09/21 14:43:06;;;;;;;2.33;1.80;;;;;;;;;;5105147;27;20048;-76
2023/09/21 14:45:32;;;;;;;2.15;1.83;;;;;;;;;;5114713;28;20514;-73